Time;durP1;ratioP1;P1;durP2;ratioP2;P2;SDS_P1;SDS_P2;PMS_P1;PMS_P2;Temp;Humidity;BMP_temperature;BMP_pressure;BME280_temperature;BME280_humidity;BME280_pressure;Samples;Min_cycle;Max_cycle;Signal;HPM_P1;HPM_P2
2021/09/02 00:01:56;;;;;;;6.63;2.78;;;;;;;12.07;51.14;102752.38;5061339;28;20025;-68
2021/09/02 00:04:25;;;;;;;10.02;3.63;;;;;;;11.97;51.21;102744.69;5060256;28;20542;-67
2021/09/02 00:06:51;;;;;;;7.18;2.60;;;;;;;11.98;51.03;102751.69;5060547;28;20052;-68
2021/09/02 00:09:16;;;;;;;4.38;2.45;;;;;;;11.86;51.35;102743.09;5059677;28;20121;-68
2021/09/02 00:11:42;;;;;;;5.47;2.97;;;;;;;11.78;51.41;102744.13;5058366;28;20032;-69
2021/09/02 00:14:07;;;;;;;9.45;3.33;;;;;;;11.85;51.69;102740.53;5059158;28;20028;-68
2021/09/02 00:16:33;;;;;;;7.78;3.97;;;;;;;11.85;51.46;102745.75;5060008;28;20491;-69
2021/09/02 00:18:58;;;;;;;7.60;3.55;;;;;;;11.87;51.54;102752.72;5059558;28;20526;-69
2021/09/02 00:21:25;;;;;;;4.40;2.47;;;;;;;11.87;51.63;102752.72;5061934;28;20529;-69
2021/09/02 00:23:51;;;;;;;5.43;2.55;;;;;;;11.87;51.36;102759.72;5059278;28;20029;-69
2021/09/02 00:26:16;;;;;;;6.28;3.45;;;;;;;11.75;51.35;102760.69;5056809;28;20523;-69
2021/09/02 00:28:42;;;;;;;9.07;3.15;;;;;;;11.57;51.56;102756.59;5058714;28;20033;-69
2021/09/02 00:31:07;;;;;;;4.20;2.78;;;;;;;11.56;51.78;102759.25;5057399;28;20044;-68
2021/09/02 00:33:33;;;;;;;7.60;2.97;;;;;;;11.60;52.01;102759.19;5057161;28;20021;-69
2021/09/02 00:35:58;;;;;;;6.13;3.25;;;;;;;11.65;51.46;102752.13;5057960;28;20139;-69
2021/09/02 00:38:24;;;;;;;5.78;2.90;;;;;;;11.65;51.67;102751.28;5058954;28;20036;-69
2021/09/02 00:40:50;;;;;;;9.18;3.33;;;;;;;11.62;51.59;102759.16;5058143;28;20694;-69
2021/09/02 00:43:16;;;;;;;6.40;2.80;;;;;;;11.54;51.95;102758.41;5058443;28;20028;-69
2021/09/02 00:45:42;;;;;;;4.15;2.88;;;;;;;11.42;51.86;102757.69;5061160;28;20068;-69
2021/09/02 00:48:08;;;;;;;7.10;2.67;;;;;;;11.36;52.31;102749.06;5061980;28;20098;-70
2021/09/02 00:50:34;;;;;;;6.18;3.58;;;;;;;11.44;52.19;102748.06;5045400;28;20042;-69
2021/09/02 00:53:00;;;;;;;9.45;2.72;;;;;;;11.54;52.01;102755.78;5058458;28;20028;-69
2021/09/02 00:55:26;;;;;;;6.32;2.40;;;;;;;11.57;52.05;102753.13;5058226;28;20478;-69
2021/09/02 00:57:52;;;;;;;7.85;3.38;;;;;;;11.45;51.94;102752.41;5058874;28;20064;-69
2021/09/02 01:00:19;;;;;;;5.80;2.58;;;;;;;11.41;52.20;102745.47;5066744;28;20040;-70
2021/09/02 01:02:46;;;;;;;5.47;2.60;;;;;;;11.46;52.03;102745.41;5058820;28;20020;-70
2021/09/02 01:05:17;;;;;;;4.95;2.53;;;;;;;11.48;51.92;102745.41;5057982;28;20040;-69
2021/09/02 01:07:43;;;;;;;5.22;3.35;;;;;;;11.44;51.87;102740.22;5056870;28;20147;-69
2021/09/02 01:10:09;;;;;;;9.65;3.33;;;;;;;11.42;52.17;102742.00;5060547;28;20973;-69
2021/09/02 01:12:44;;;;;;;9.13;2.83;;;;;;;11.41;52.07;102740.25;5058505;28;21040;-69
2021/09/02 01:15:11;;;;;;;10.88;2.67;;;;;;;11.45;51.97;102744.56;5063012;28;20025;-68
2021/09/02 01:17:41;;;;;;;4.88;3.15;;;;;;;11.42;51.95;102736.75;5072419;28;20041;-69
2021/09/02 01:20:09;;;;;;;4.10;2.60;;;;;;;11.49;52.20;102736.69;5057280;28;20039;-69
2021/09/02 01:22:35;;;;;;;6.50;2.70;;;;;;;11.57;51.73;102734.78;5062160;28;20028;-69
2021/09/02 01:25:06;;;;;;;6.03;2.35;;;;;;;11.50;51.76;102741.88;5058661;28;20033;-69
2021/09/02 01:27:32;;;;;;;6.57;3.33;;;;;;;11.43;51.82;102735.84;5057640;28;20041;-69
2021/09/02 01:30:03;;;;;;;5.80;2.95;;;;;;;11.43;51.93;102738.47;5060434;28;20327;-69
2021/09/02 01:32:31;;;;;;;5.97;2.70;;;;;;;11.46;51.90;102743.69;5073481;28;20132;-69
2021/09/02 01:34:58;;;;;;;6.07;2.63;;;;;;;11.44;51.96;102740.22;5061831;28;20028;-69
2021/09/02 01:37:25;;;;;;;7.05;2.65;;;;;;;11.41;52.02;102737.63;5058670;28;20037;-69
2021/09/02 01:39:51;;;;;;;8.85;3.03;;;;;;;11.34;52.27;102737.75;5076141;28;20083;-69
2021/09/02 01:42:18;;;;;;;6.40;3.35;;;;;;;11.30;52.05;102739.53;5061409;28;20147;-68
2021/09/02 01:44:43;;;;;;;6.43;3.35;;;;;;;11.36;52.38;102735.97;5057443;28;20107;-69
2021/09/02 01:47:19;;;;;;;7.10;3.40;;;;;;;11.46;52.34;102733.22;5067747;28;20034;-69
2021/09/02 01:49:45;;;;;;;11.13;2.72;;;;;;;11.54;52.15;102729.59;5057707;28;21250;-69
2021/09/02 01:52:10;;;;;;;7.28;3.17;;;;;;;11.52;51.81;102731.38;5057394;28;20402;-68
2021/09/02 01:54:36;;;;;;;8.88;2.75;;;;;;;11.62;51.97;102732.97;5058877;28;20115;-70
2021/09/02 01:57:05;;;;;;;11.90;3.75;;;;;;;11.59;52.05;102735.63;5065964;28;20032;-68
2021/09/02 01:59:30;;;;;;;7.35;2.80;;;;;;;11.51;51.69;102730.53;5060764;28;20398;-68
2021/09/02 02:01:56;;;;;;;5.93;2.28;;;;;;;11.46;51.97;102733.22;5068423;28;20028;-69
2021/09/02 02:04:21;;;;;;;7.90;2.67;;;;;;;11.42;52.01;102728.03;5064861;28;20575;-69
2021/09/02 02:06:47;;;;;;;10.60;2.70;;;;;;;11.40;52.40;102728.06;5062909;28;20048;-69
2021/09/02 02:09:12;;;;;;;8.50;2.65;;;;;;;11.35;52.02;102723.75;5069034;28;20032;-69
2021/09/02 02:11:38;;;;;;;6.10;2.97;;;;;;;11.29;52.46;102734.34;5064463;28;20032;-68
2021/09/02 02:14:03;;;;;;;5.70;2.53;;;;;;;11.31;52.24;102733.41;5065157;28;20059;-69
2021/09/02 02:16:29;;;;;;;7.32;2.55;;;;;;;11.27;52.39;102730.88;5064191;28;20029;-69
2021/09/02 02:18:54;;;;;;;4.00;2.22;;;;;;;11.27;52.53;102736.97;5064699;28;20505;-68
2021/09/02 02:21:19;;;;;;;7.07;2.15;;;;;;;11.26;52.43;102740.44;5062680;28;20063;-69
2021/09/02 02:23:45;;;;;;;6.15;2.80;;;;;;;11.27;52.88;102741.34;5079192;28;20696;-68
2021/09/02 02:26:10;;;;;;;7.75;2.50;;;;;;;11.36;52.93;102742.06;5052419;28;20090;-69
2021/09/02 02:28:36;;;;;;;7.10;2.70;;;;;;;11.42;52.76;102726.28;5062362;28;20486;-70
2021/09/02 02:31:01;;;;;;;6.57;3.05;;;;;;;11.42;52.67;102731.50;5067324;28;20033;-69
2021/09/02 02:33:27;;;;;;;5.78;2.72;;;;;;;11.41;52.61;102735.00;5066576;28;20485;-69
2021/09/02 02:35:53;;;;;;;6.75;2.50;;;;;;;11.54;52.63;102727.00;5063562;28;20544;-69
2021/09/02 02:38:19;;;;;;;7.25;2.58;;;;;;;11.53;52.24;102727.84;5075396;28;20062;-69
2021/09/02 02:40:45;;;;;;;9.75;2.92;;;;;;;11.50;52.22;102722.69;5061673;28;20036;-69
2021/09/02 02:43:13;;;;;;;7.55;2.75;;;;;;;11.52;52.30;102724.38;5046439;28;20497;-69
2021/09/02 02:45:38;;;;;;;9.43;3.05;;;;;;;11.54;52.42;102716.50;5062430;28;20086;-69
2021/09/02 02:48:04;;;;;;;4.68;2.75;;;;;;;11.58;52.29;102713.81;5068937;28;20063;-70
2021/09/02 02:50:30;;;;;;;7.00;3.20;;;;;;;11.66;52.48;102718.94;5068069;28;20032;-68
2021/09/02 02:52:56;;;;;;;9.07;3.47;;;;;;;11.65;52.20;102709.38;5080959;28;20504;-69
2021/09/02 02:55:21;;;;;;;6.65;2.22;;;;;;;11.67;52.10;102707.59;5073825;28;20579;-68
2021/09/02 02:57:47;;;;;;;5.90;2.80;;;;;;;11.65;51.99;102706.75;5073628;28;20046;-69
2021/09/02 03:00:13;;;;;;;10.15;3.13;;;;;;;11.60;52.09;102701.56;5064315;28;20215;-69
2021/09/02 03:02:38;;;;;;;10.00;3.47;;;;;;;11.52;52.28;102706.06;5067615;28;20255;-69
2021/09/02 03:05:05;;;;;;;7.78;3.20;;;;;;;11.48;52.31;102703.50;5065797;28;20079;-70
2021/09/02 03:07:33;;;;;;;6.10;3.03;;;;;;;11.46;52.54;102711.38;5043632;28;20036;-68
2021/09/02 03:09:58;;;;;;;8.38;3.67;;;;;;;11.40;52.65;102701.88;5067528;28;20102;-69
2021/09/02 03:12:24;;;;;;;9.52;4.03;;;;;;;11.61;52.69;102702.44;5070508;28;20040;-70
2021/09/02 03:14:49;;;;;;;8.85;3.88;;;;;;;11.59;52.68;102705.06;5060817;28;20041;-69
2021/09/02 03:17:15;;;;;;;7.65;2.97;;;;;;;11.49;52.33;102705.25;5064549;28;20045;-68
2021/09/02 03:19:40;;;;;;;9.48;2.95;;;;;;;11.53;52.42;102701.69;5061713;28;20051;-69
2021/09/02 03:22:06;;;;;;;8.48;2.97;;;;;;;11.61;52.34;102705.06;5044833;28;20028;-70
2021/09/02 03:24:31;;;;;;;9.10;2.63;;;;;;;11.67;52.68;102702.34;5043649;28;20032;-70
2021/09/02 03:26:57;;;;;;;8.75;3.25;;;;;;;11.74;52.21;102705.75;5063592;28;20040;-69
2021/09/02 03:29:22;;;;;;;6.80;3.53;;;;;;;11.67;52.25;102702.34;5064363;28;20036;-69
2021/09/02 03:31:48;;;;;;;12.88;3.88;;;;;;;11.82;52.24;102707.38;5059057;28;20537;-69
2021/09/02 03:34:13;;;;;;;10.15;4.03;;;;;;;11.98;51.91;102704.50;5063909;28;20166;-68
2021/09/02 03:36:41;;;;;;;11.88;3.17;;;;;;;11.86;52.21;102701.19;5061844;28;20692;-69
2021/09/02 03:39:06;;;;;;;6.68;3.28;;;;;;;11.97;52.12;102697.53;5063515;28;20036;-70
2021/09/02 03:41:32;;;;;;;8.50;3.13;;;;;;;11.99;52.04;102699.22;5065742;28;20070;-69
2021/09/02 03:43:57;;;;;;;10.23;3.90;;;;;;;12.09;51.51;102697.31;5062796;28;20122;-68
2021/09/02 03:46:23;;;;;;;10.90;3.72;;;;;;;12.00;52.02;102698.34;5059535;28;20041;-69
2021/09/02 03:48:49;;;;;;;7.97;2.85;;;;;;;12.07;52.12;102693.88;5060983;28;20156;-70
2021/09/02 03:51:14;;;;;;;5.30;3.15;;;;;;;12.22;52.16;102709.34;5059903;28;20036;-68
2021/09/02 03:53:39;;;;;;;8.98;3.58;;;;;;;12.24;52.02;102701.41;5058523;28;20055;-69
2021/09/02 03:56:05;;;;;;;9.05;3.95;;;;;;;12.29;51.72;102707.47;5058066;28;20024;-69
2021/09/02 03:58:30;;;;;;;9.02;3.00;;;;;;;12.40;51.95;102704.63;5061659;28;20028;-69
2021/09/02 04:00:56;;;;;;;7.43;3.45;;;;;;;12.32;51.52;102703.91;5057729;28;20029;-69
2021/09/02 04:03:21;;;;;;;7.80;4.05;;;;;;;12.37;51.35;102702.06;5057539;28;20108;-70
2021/09/02 04:05:47;;;;;;;9.65;3.55;;;;;;;12.44;51.38;102701.06;5041272;28;20223;-68
2021/09/02 04:08:12;;;;;;;6.10;3.08;;;;;;;12.45;51.65;102708.03;5039348;28;20571;-69
2021/09/02 04:10:38;;;;;;;14.40;5.13;;;;;;;12.27;52.00;102712.72;5067119;28;20119;-68
2021/09/02 04:13:03;;;;;;;6.28;3.38;;;;;;;12.43;52.05;102705.44;5042512;28;20032;-70
2021/09/02 04:15:29;;;;;;;10.23;3.50;;;;;;;12.60;51.57;102702.50;5058554;28;20032;-68
2021/09/02 04:17:54;;;;;;;9.85;4.15;;;;;;;12.57;51.25;102707.78;5073624;28;20573;-69
2021/09/02 04:20:20;;;;;;;9.13;4.78;;;;;;;12.54;51.50;102702.63;5039921;28;20139;-69
2021/09/02 04:22:45;;;;;;;11.20;3.38;;;;;;;12.54;51.66;102702.63;5067765;28;20145;-69
2021/09/02 04:25:11;;;;;;;12.88;4.22;;;;;;;12.57;51.94;102710.41;5079601;28;20032;-70
2021/09/02 04:27:36;;;;;;;11.57;4.25;;;;;;;12.60;51.82;102699.88;5058019;28;20028;-69
2021/09/02 04:30:04;;;;;;;6.80;3.40;;;;;;;12.72;51.50;102697.94;5060071;28;20059;-69
2021/09/02 04:32:29;;;;;;;9.23;3.83;;;;;;;12.77;51.88;102703.94;5055626;28;20040;-70
2021/09/02 04:34:55;;;;;;;11.00;3.15;;;;;;;12.94;51.74;102704.47;5059088;28;20048;-69
2021/09/02 04:37:20;;;;;;;6.93;3.60;;;;;;;12.99;51.21;102707.84;5064505;28;20039;-69
2021/09/02 04:39:46;;;;;;;11.98;3.55;;;;;;;13.02;50.86;102705.16;5061302;28;20036;-69
2021/09/02 04:42:11;;;;;;;14.68;4.47;;;;;;;12.86;50.79;102702.00;5057529;28;20136;-69
2021/09/02 04:44:37;;;;;;;11.15;5.10;;;;;;;12.88;51.52;102707.22;5055281;28;20060;-69
2021/09/02 04:47:03;;;;;;;14.20;5.20;;;;;;;12.88;51.29;102709.84;5058531;28;20031;-69
2021/09/02 04:49:29;;;;;;;12.63;4.28;;;;;;;12.92;51.47;102710.66;5047203;28;20627;-69
2021/09/02 04:51:54;;;;;;;9.30;3.75;;;;;;;12.96;51.27;102707.94;5058257;28;20036;-69
2021/09/02 04:54:21;;;;;;;10.32;4.43;;;;;;;12.98;51.75;102711.41;5058174;28;20452;-69
2021/09/02 04:56:46;;;;;;;10.23;4.18;;;;;;;13.02;51.78;102715.66;5057707;28;20039;-69
2021/09/02 04:59:12;;;;;;;8.13;3.90;;;;;;;13.01;51.71;102715.72;5058665;28;20421;-68
2021/09/02 05:01:37;;;;;;;12.05;4.63;;;;;;;13.06;51.79;102721.72;5061514;28;20036;-69
2021/09/02 05:04:03;;;;;;;13.23;5.25;;;;;;;12.83;51.75;102712.56;5060226;28;20028;-68
2021/09/02 05:06:28;;;;;;;13.98;5.10;;;;;;;13.12;51.52;102718.97;5057134;28;20048;-69
2021/09/02 05:08:54;;;;;;;10.93;4.22;;;;;;;13.05;51.67;102712.13;5073228;28;20039;-68
2021/09/02 05:11:20;;;;;;;10.98;4.63;;;;;;;12.74;52.16;102707.50;5058542;28;20020;-68
2021/09/02 05:13:45;;;;;;;12.90;4.22;;;;;;;13.04;52.34;102711.25;5058721;28;20584;-69
2021/09/02 05:16:11;;;;;;;14.95;4.28;;;;;;;13.23;51.74;102718.75;5057133;28;20136;-69
2021/09/02 05:18:36;;;;;;;9.38;4.25;;;;;;;13.09;51.36;102719.91;5055243;28;20060;-68
2021/09/02 05:21:02;;;;;;;11.98;4.43;;;;;;;13.08;51.58;102718.16;5059421;28;20444;-68
2021/09/02 05:23:27;;;;;;;7.45;3.60;;;;;;;13.20;51.79;102726.66;5058261;28;20032;-70
2021/09/02 05:25:53;;;;;;;7.50;3.33;;;;;;;13.31;51.44;102727.28;5074984;28;20040;-68
2021/09/02 05:28:18;;;;;;;12.55;4.70;;;;;;;13.23;50.99;102721.38;5060126;28;20049;-68
2021/09/02 05:30:44;;;;;;;13.30;5.05;;;;;;;13.10;50.82;102721.63;5057654;28;20025;-68
2021/09/02 05:33:10;;;;;;;8.32;3.65;;;;;;;13.04;52.11;102721.75;5055886;28;20105;-68
2021/09/02 05:35:35;;;;;;;12.88;4.28;;;;;;;13.19;51.51;102724.94;5057011;28;20044;-69
2021/09/02 05:38:01;;;;;;;11.30;5.32;;;;;;;13.25;51.39;102733.56;5062499;28;20051;-68
2021/09/02 05:40:27;;;;;;;8.77;4.32;;;;;;;13.31;51.57;102730.78;5074521;28;20041;-69
2021/09/02 05:42:52;;;;;;;6.00;3.13;;;;;;;13.48;51.48;102733.03;5058848;28;20151;-70
2021/09/02 05:45:18;;;;;;;13.30;4.93;;;;;;;13.42;50.99;102741.06;5058519;28;20115;-68
2021/09/02 05:47:43;;;;;;;15.27;4.55;;;;;;;13.25;51.52;102740.56;5056938;28;20139;-68
2021/09/02 05:50:09;;;;;;;9.43;4.03;;;;;;;13.50;51.44;102735.63;5057266;28;20032;-69
2021/09/02 05:52:35;;;;;;;10.77;4.50;;;;;;;13.59;51.41;102735.47;5055863;28;20087;-68
2021/09/02 05:55:00;;;;;;;13.75;4.53;;;;;;;13.59;51.19;102737.22;5056586;28;20363;-70
2021/09/02 05:57:26;;;;;;;10.50;4.75;;;;;;;13.61;50.81;102736.28;5056637;28;20036;-68
2021/09/02 05:59:51;;;;;;;13.40;5.13;;;;;;;13.49;50.57;102729.50;5058447;28;20036;-69
2021/09/02 06:02:17;;;;;;;24.65;5.10;;;;;;;13.61;51.00;102736.28;5059089;28;20135;-69
2021/09/02 06:04:43;;;;;;;11.38;4.80;;;;;;;13.73;51.08;102730.72;5056956;28;20029;-69
2021/09/02 06:07:08;;;;;;;8.57;3.70;;;;;;;13.92;50.96;102736.41;5056071;28;20113;-71
2021/09/02 06:09:34;;;;;;;11.18;4.38;;;;;;;13.94;50.46;102737.25;5056375;28;20040;-68
2021/09/02 06:11:59;;;;;;;9.93;4.78;;;;;;;14.00;50.69;102738.00;5056091;28;20576;-69
2021/09/02 06:14:25;;;;;;;15.48;5.30;;;;;;;14.09;50.56;102743.00;5043262;28;20402;-70
2021/09/02 06:16:50;;;;;;;14.55;4.75;;;;;;;14.11;50.36;102751.72;5058793;28;20123;-70
2021/09/02 06:19:16;;;;;;;11.52;4.47;;;;;;;14.17;50.44;102754.22;5038576;28;20126;-69
2021/09/02 06:21:42;;;;;;;7.82;4.53;;;;;;;14.18;50.51;102761.19;5060454;28;20029;-70
2021/09/02 06:24:07;;;;;;;9.10;4.22;;;;;;;14.31;50.29;102767.00;5056844;28;20035;-71
2021/09/02 06:26:33;;;;;;;9.75;4.75;;;;;;;14.42;49.95;102775.50;5073455;28;20064;-69
2021/09/02 06:28:58;;;;;;;11.18;4.10;;;;;;;14.54;49.76;102769.03;5040659;28;20025;-69
2021/09/02 06:31:24;;;;;;;11.10;4.25;;;;;;;14.67;49.90;102775.72;5058243;28;20426;-69
2021/09/02 06:33:50;;;;;;;9.52;5.18;;;;;;;14.54;50.04;102767.31;5061181;28;20403;-71
2021/09/02 06:36:15;;;;;;;9.20;4.05;;;;;;;14.42;49.89;102772.03;5054717;28;20044;-69
2021/09/02 06:38:41;;;;;;;11.20;4.95;;;;;;;14.64;50.33;102773.16;5055710;28;20028;-69
2021/09/02 06:41:06;;;;;;;13.60;4.88;;;;;;;14.57;49.67;102768.97;5058304;28;20040;-71
2021/09/02 06:43:32;;;;;;;9.77;4.82;;;;;;;14.63;50.04;102779.31;5059827;28;20435;-69
2021/09/02 06:45:58;;;;;;;18.38;4.70;;;;;;;14.58;50.02;102768.06;5061294;28;20449;-70
2021/09/02 06:48:23;;;;;;;11.93;5.25;;;;;;;14.66;49.81;102767.88;5059939;28;20028;-70
2021/09/02 06:50:49;;;;;;;11.43;4.65;;;;;;;14.71;50.19;102772.09;5082800;28;20119;-69
2021/09/02 06:53:14;;;;;;;11.57;5.47;;;;;;;14.84;49.82;102763.88;5074689;28;20436;-69
2021/09/02 06:55:40;;;;;;;13.93;4.32;;;;;;;14.87;49.17;102769.88;5075833;28;20028;-69
2021/09/02 06:58:05;;;;;;;11.68;4.15;;;;;;;14.91;49.09;102768.06;5059451;28;20423;-70
2021/09/02 07:00:31;;;;;;;11.65;5.00;;;;;;;14.81;49.27;102766.56;5055943;28;20054;-69
2021/09/02 07:02:57;;;;;;;16.80;4.68;;;;;;;14.89;49.33;102769.84;5056742;28;20047;-68
2021/09/02 07:05:23;;;;;;;9.95;4.22;;;;;;;15.06;49.78;102770.25;5062446;28;20104;-68
2021/09/02 07:07:48;;;;;;;13.32;5.32;;;;;;;15.28;49.06;102772.25;5074875;28;20062;-69
2021/09/02 07:10:14;;;;;;;13.45;5.43;;;;;;;15.31;48.22;102773.03;5059038;28;20139;-69
2021/09/02 07:12:39;;;;;;;9.18;4.50;;;;;;;15.42;48.89;102770.09;5068060;28;20061;-67
2021/09/02 07:15:05;;;;;;;14.48;6.20;;;;;;;15.53;48.62;102773.25;5061745;28;20045;-68
2021/09/02 07:17:31;;;;;;;8.48;4.85;;;;;;;15.61;47.82;102770.38;5063164;28;20107;-70
2021/09/02 07:19:59;;;;;;;10.00;4.57;;;;;;;15.50;48.76;102778.59;5059109;28;20605;-69
2021/09/02 07:22:24;;;;;;;6.78;4.28;;;;;;;15.71;48.67;102777.09;5062773;28;20063;-69
2021/09/02 07:24:50;;;;;;;15.63;4.70;;;;;;;15.91;47.50;102776.44;5058149;28;20494;-67
2021/09/02 07:27:15;;;;;;;14.82;4.63;;;;;;;15.97;47.41;102778.00;5057407;28;20496;-68
2021/09/02 07:29:41;;;;;;;11.48;4.25;;;;;;;15.86;48.23;102781.00;5059558;28;20024;-68
2021/09/02 07:32:07;;;;;;;11.88;4.20;;;;;;;16.10;47.92;102778.50;5059134;28;20029;-68
2021/09/02 07:34:32;;;;;;;8.88;4.65;;;;;;;16.11;47.88;102781.09;5075694;28;20037;-69
2021/09/02 07:36:58;;;;;;;16.60;4.95;;;;;;;16.30;47.74;102776.06;5058082;28;20538;-72
2021/09/02 07:39:24;;;;;;;10.73;3.85;;;;;;;16.54;47.01;102778.78;5060200;28;20029;-68
2021/09/02 07:41:49;;;;;;;16.15;4.97;;;;;;;16.81;46.41;102791.00;5058493;28;20028;-68
2021/09/02 07:44:15;;;;;;;12.50;3.92;;;;;;;16.76;46.14;102792.97;5036634;28;20098;-69
2021/09/02 07:46:40;;;;;;;10.68;4.40;;;;;;;16.67;45.74;102795.03;5063958;28;20112;-69
2021/09/02 07:49:06;;;;;;;14.23;4.30;;;;;;;16.69;45.78;102794.06;5063539;28;20086;-69
2021/09/02 07:51:31;;;;;;;10.98;3.75;;;;;;;16.78;45.91;102799.03;5044613;28;20044;-69
2021/09/02 07:53:57;;;;;;;9.50;4.20;;;;;;;16.85;44.74;102793.56;5059716;28;20094;-70
2021/09/02 07:56:22;;;;;;;10.40;3.75;;;;;;;16.90;44.66;102791.59;5059403;28;20643;-69
2021/09/02 07:58:48;;;;;;;11.60;3.38;;;;;;;17.12;44.54;102796.94;5057815;28;20498;-69
2021/09/02 08:01:14;;;;;;;10.15;4.05;;;;;;;17.20;43.84;102795.75;5062190;28;20663;-69
2021/09/02 08:03:41;;;;;;;12.43;5.75;;;;;;;17.13;43.17;102796.00;5065791;28;20644;-69
2021/09/02 08:06:06;;;;;;;14.50;4.45;;;;;;;17.22;42.96;102798.31;5038370;28;20042;-70
2021/09/02 08:08:32;;;;;;;14.52;4.63;;;;;;;17.16;43.04;102793.28;5061043;28;20036;-69
2021/09/02 08:10:59;;;;;;;13.45;4.88;;;;;;;17.14;43.80;102795.13;5057145;28;20108;-68
2021/09/02 08:13:25;;;;;;;16.95;5.10;;;;;;;17.17;43.90;102790.56;5056795;28;20025;-68
2021/09/02 08:15:51;;;;;;;14.07;3.90;;;;;;;17.20;43.09;102790.47;5060677;28;20063;-69
2021/09/02 08:18:16;;;;;;;6.00;3.15;;;;;;;17.49;43.42;102791.13;5058091;28;20052;-69
2021/09/02 08:20:42;;;;;;;9.57;4.20;;;;;;;17.60;43.13;102798.63;5058886;28;20028;-69
2021/09/02 08:23:08;;;;;;;7.53;3.42;;;;;;;17.52;43.32;102788.38;5059447;28;20029;-69
2021/09/02 08:25:34;;;;;;;9.98;3.88;;;;;;;17.32;43.09;102793.56;5060667;28;20073;-69
2021/09/02 08:27:59;;;;;;;11.82;4.85;;;;;;;17.62;43.19;102792.38;5055207;28;20045;-70
2021/09/02 08:30:27;;;;;;;10.50;4.78;;;;;;;17.78;43.38;102797.03;5059466;28;20035;-68
2021/09/02 08:32:53;;;;;;;9.82;3.30;;;;;;;17.82;41.90;102793.34;5057880;28;20059;-68
2021/09/02 08:35:22;;;;;;;11.93;4.28;;;;;;;17.93;41.16;102790.28;5056754;28;20040;-69
2021/09/02 08:37:49;;;;;;;7.28;3.58;;;;;;;18.11;41.65;102791.31;5057247;28;20033;-68
2021/09/02 08:40:21;;;;;;;12.88;3.90;;;;;;;18.07;41.30;102787.91;5056045;28;20115;-70
2021/09/02 08:42:47;;;;;;;12.88;3.95;;;;;;;17.27;42.75;102790.19;5055172;28;20074;-69
2021/09/02 08:45:14;;;;;;;10.68;3.80;;;;;;;17.57;41.79;102794.34;5056099;28;20028;-68
2021/09/02 08:47:44;;;;;;;9.52;3.47;;;;;;;17.98;42.21;102789.19;5057669;28;20414;-69
2021/09/02 08:50:10;;;;;;;8.57;2.72;;;;;;;17.97;41.56;102784.78;5072532;28;20029;-69
2021/09/02 08:52:35;;;;;;;5.72;2.83;;;;;;;18.20;41.36;102791.78;5058932;28;20055;-68
2021/09/02 08:55:03;;;;;;;13.98;4.65;;;;;;;18.12;40.98;102793.00;5056614;28;20032;-68
2021/09/02 08:57:29;;;;;;;11.45;2.95;;;;;;;18.45;39.80;102799.56;5060890;28;20580;-70
2021/09/02 08:59:55;;;;;;;6.55;3.03;;;;;;;18.23;39.73;102796.13;5058678;28;20044;-69
2021/09/02 09:02:28;;;;;;;9.52;2.78;;;;;;;18.53;40.13;102791.28;5054901;28;20174;-69
2021/09/02 09:05:19;;;;;;;8.65;3.35;;;;;;;18.64;39.34;102799.63;5062515;28;20046;-68
2021/09/02 09:07:46;;;;;;;7.53;2.60;;;;;;;18.34;39.51;102807.13;5056904;28;20115;-68
2021/09/02 09:10:21;;;;;;;10.35;2.60;;;;;;;18.11;39.76;102804.53;5049416;28;20050;-69
2021/09/02 09:12:51;;;;;;;9.88;2.50;;;;;;;18.02;39.04;102801.34;5058777;28;20032;-68
2021/09/02 09:15:37;;;;;;;14.32;3.50;;;;;;;17.95;39.84;102805.16;5076407;28;20043;-68
2021/09/02 09:18:14;;;;;;;9.68;2.67;;;;;;;17.86;39.04;102801.09;5061411;28;20055;-70
2021/09/02 09:20:39;;;;;;;8.77;2.60;;;;;;;18.09;39.90;102798.44;5056083;28;20032;-68
2021/09/02 09:23:05;;;;;;;5.38;2.45;;;;;;;18.04;38.99;102803.94;5058576;28;20386;-68
2021/09/02 09:25:30;;;;;;;5.00;2.33;;;;;;;18.30;39.19;102794.09;5060639;28;20037;-69
2021/09/02 09:27:58;;;;;;;8.93;2.55;;;;;;;18.49;38.48;102797.63;5055029;28;20028;-68
2021/09/02 09:30:33;;;;;;;12.45;2.65;;;;;;;18.56;38.03;102798.22;5061766;28;20032;-68
2021/09/02 09:33:04;;;;;;;11.70;2.85;;;;;;;18.47;38.36;102797.72;5069804;28;20128;-68
2021/09/02 09:35:33;;;;;;;5.83;2.43;;;;;;;18.67;38.29;102798.63;5043856;28;20032;-70
2021/09/02 09:38:12;;;;;;;6.53;2.45;;;;;;;18.88;38.48;102802.16;5061044;28;20058;-69
2021/09/02 09:40:45;;;;;;;6.25;2.70;;;;;;;18.49;38.08;102805.56;5072897;28;20475;-69
2021/09/02 09:43:22;;;;;;;10.43;2.50;;;;;;;18.28;38.75;102802.06;5054751;28;20075;-67
2021/09/02 09:45:55;;;;;;;6.78;2.45;;;;;;;18.17;37.97;102809.56;5058923;28;20032;-67
2021/09/02 09:48:35;;;;;;;8.18;1.73;;;;;;;17.94;38.92;102808.75;5056343;28;20756;-68
2021/09/02 09:51:22;;;;;;;6.63;2.80;;;;;;;17.76;39.11;102817.41;5054653;28;20149;-69
2021/09/02 09:53:52;;;;;;;6.95;2.85;;;;;;;17.70;38.46;102815.88;5057126;28;20036;-68
2021/09/02 09:56:20;;;;;;;6.97;2.13;;;;;;;17.41;40.32;102815.19;5053057;28;20122;-68
2021/09/02 09:58:48;;;;;;;3.35;1.67;;;;;;;17.58;39.56;102817.22;5058455;28;20087;-69
2021/09/02 10:01:15;;;;;;;8.75;2.63;;;;;;;17.29;39.66;102818.31;5058523;28;20039;-69
2021/09/02 10:03:42;;;;;;;8.20;3.25;;;;;;;17.31;41.27;102819.09;5055368;28;20059;-69
2021/09/02 10:06:12;;;;;;;8.98;2.33;;;;;;;17.49;40.82;102816.72;5052979;28;20044;-68
2021/09/02 10:08:41;;;;;;;4.93;2.60;;;;;;;17.29;39.97;102809.50;5061503;28;20039;-68
2021/09/02 10:11:09;;;;;;;6.47;2.50;;;;;;;17.42;40.23;102819.53;5060731;28;20123;-69
2021/09/02 10:13:36;;;;;;;6.35;2.75;;;;;;;17.77;39.58;102814.69;5059643;28;20036;-68
2021/09/02 10:16:02;;;;;;;10.80;2.88;;;;;;;17.63;38.87;102814.41;5059271;28;20037;-68
2021/09/02 10:18:31;;;;;;;10.93;2.35;;;;;;;18.02;38.54;102811.91;5054896;28;20047;-68
2021/09/02 10:21:02;;;;;;;11.82;2.55;;;;;;;18.20;38.10;102814.75;5063418;28;20639;-68
2021/09/02 10:23:28;;;;;;;5.15;2.05;;;;;;;18.61;37.74;102814.81;5062035;28;20036;-68
2021/09/02 10:25:54;;;;;;;4.72;2.67;;;;;;;18.88;38.05;102810.94;5072946;28;20093;-68
2021/09/02 10:28:28;;;;;;;8.35;2.38;;;;;;;18.48;37.81;102814.47;5057776;28;20044;-68
2021/09/02 10:30:57;;;;;;;7.43;2.70;;;;;;;18.15;37.45;102812.28;5058848;28;20064;-68
2021/09/02 10:33:37;;;;;;;6.55;3.00;;;;;;;18.57;37.58;102815.84;5058432;28;20101;-69
2021/09/02 10:36:15;;;;;;;6.38;2.67;;;;;;;19.16;36.78;102809.69;5073235;28;20033;-68
2021/09/02 10:38:54;;;;;;;7.65;2.53;;;;;;;19.07;35.77;102812.75;5060776;28;20063;-69
2021/09/02 10:41:40;;;;;;;8.57;3.05;;;;;;;18.92;36.68;102808.16;5059336;28;20048;-68
2021/09/02 10:44:10;;;;;;;5.82;2.40;;;;;;;19.00;36.34;102812.19;5070886;28;20016;-68
2021/09/02 10:46:43;;;;;;;7.53;2.67;;;;;;;19.06;35.65;102814.56;5063329;28;20036;-67
2021/09/02 10:49:26;;;;;;;5.35;2.80;;;;;;;19.21;35.90;102809.47;5062587;28;20055;-67
2021/09/02 10:51:57;;;;;;;5.97;2.03;;;;;;;19.62;34.96;102810.22;5038258;28;20078;-69
2021/09/02 10:54:24;;;;;;;5.03;2.35;;;;;;;19.41;35.36;102805.88;5058281;28;20047;-68
2021/09/02 10:56:54;;;;;;;4.47;2.30;;;;;;;19.15;35.29;102799.16;5061459;28;20040;-68
2021/09/02 10:59:41;;;;;;;3.53;2.20;;;;;;;19.30;34.50;102803.72;5061763;28;20086;-68
2021/09/02 11:02:09;;;;;;;6.45;2.67;;;;;;;19.42;34.28;102803.16;5060768;28;20024;-68
2021/09/02 11:04:38;;;;;;;8.43;2.33;;;;;;;18.76;36.02;102808.81;5062814;28;20545;-70
2021/09/02 11:07:04;;;;;;;5.97;3.13;;;;;;;18.78;36.55;102812.25;5057216;28;20071;-68
2021/09/02 11:09:32;;;;;;;7.55;2.67;;;;;;;19.14;36.33;102802.72;5060698;28;20742;-67
2021/09/02 11:12:00;;;;;;;7.30;2.90;;;;;;;19.11;36.15;102798.44;5064320;28;20107;-69
2021/09/02 11:14:26;;;;;;;7.18;2.97;;;;;;;18.89;36.69;102804.72;5058925;28;20087;-68
2021/09/02 11:16:52;;;;;;;6.78;2.33;;;;;;;19.23;35.37;102805.84;5058458;28;20119;-69
2021/09/02 11:19:33;;;;;;;7.15;2.45;;;;;;;19.10;35.91;102802.03;5057313;28;20070;-69
2021/09/02 11:22:09;;;;;;;6.85;2.45;;;;;;;19.47;34.92;102795.00;5059578;28;20043;-68